Terminal Aerodrome Forecast
Issued by NWS

Home | Current Version | Previous Version | Text Only | Print | Product List | Glossary On
Versions: 1 2 3 4 5 6 7 8 9 10 11 12 13 14 15 16 17 18 19 20 21 22 23 24 25
802
FTUS41 KBUF 272335
TAFJHW
TAF
KJHW 272335Z 2800/2824 20004KT P6SM BKN080
     FM280400 17004KT P6SM BKN035
     FM281300 15005KT P6SM BKN130
     FM281900 18010KT 6SM -SHRA OVC025
     FM282100 18010KT P6SM VCSH OVC012
      AMD LTD TO CLD VIS AND WIND=

USA.gov is the U.S. government's official web portal to all federal, state and local government web resources and services.